PWSweather.com
Personal Weather Stations
Station Observations
WXGLH1124
Southern Oaks, Indianapolis, IN 46217

Southern OaksIndianapolis, IN 46217

Lat: 39.65113, Lon: -86.16866

Elevation: 720

Station Type: Vantage Pro2

High Low Average
Temperature 51.6°F10.9°C 25.8°F-3.4°C 31.5°F-0.3°C
Dew Point 46.0°F7.8°C 16.9°F-8.4°C 24.0°F-4.4°C
Winds 15.0 mph 24.1 kmh Calm Calm 3.0 mph NW4.8 kmh NW
Wind Gusts 17.0 mph27.4 kmh -- 7.0 mph11.3 kmh
Humidity 87% 60% 74%
Pressure 30.06 in1017.9 mb 29.65 in1004.1 mb -
Precipitation 0.00 in0.0 mm - -
Hour Temp Dew Point Humidity Winds Wind Gusts Pressure Precip Precip Rate Daily Precip Total
12:00 AM 51.3°F10.7°C 45.4°F7.4°C 80% 8.0 mph SW12.9 kmh SW 14.0 mph22.5 kmh 29.64 in1003.7 mb 0.00 in0.0 mm 0.00 in0.0 mm 0.00 in0.0 mm
12:05 AM 51.3°F10.7°C 45.4°F7.4°C 80% 8.0 mph SW12.9 kmh SW 11.0 mph17.7 kmh 29.64 in1003.7 mb 0.00 in0.0 mm 0.00 in0.0 mm 0.00 in0.0 mm
12:10 AM 51.3°F10.7°C 45.7°F7.6°C 81% 9.0 mph WSW14.5 kmh WSW 11.0 mph17.7 kmh 29.64 in1003.7 mb 0.00 in0.0 mm 0.00 in0.0 mm 0.00 in0.0 mm
12:15 AM 51.3°F10.7°C 45.7°F7.6°C 81% 7.0 mph SW11.3 kmh SW 10.0 mph16.1 kmh 29.65 in1004.1 mb 0.00 in0.0 mm 0.00 in0.0 mm 0.00 in0.0 mm
12:20 AM 51.4°F10.8°C 45.8°F7.7°C 81% 5.0 mph WSW8.0 kmh WSW 18.0 mph29.0 kmh 29.64 in1003.7 mb 0.00 in0.0 mm 0.00 in0.0 mm 0.00 in0.0 mm
12:25 AM 51.4°F10.8°C 45.8°F7.7°C 81% 11.0 mph SW17.7 kmh SW 13.0 mph20.9 kmh 29.64 in1003.7 mb 0.00 in0.0 mm 0.00 in0.0 mm 0.00 in0.0 mm
12:29 AM 51.5°F10.8°C 45.9°F7.7°C 81% 12.0 mph SW19.3 kmh SW 12.0 mph19.3 kmh 29.64 in1003.7 mb 0.00 in0.0 mm 0.00 in0.0 mm 0.00 in0.0 mm
12:35 AM 51.6°F10.9°C 46.0°F7.8°C 81% 5.0 mph SW8.0 kmh SW 13.0 mph20.9 kmh 29.64 in1003.7 mb 0.00 in0.0 mm 0.00 in0.0 mm 0.00 in0.0 mm
12:40 AM 51.6°F10.9°C 46.0°F7.8°C 81% 8.0 mph SW12.9 kmh SW 14.0 mph22.5 kmh 29.64 in1003.7 mb 0.00 in0.0 mm 0.00 in0.0 mm 0.00 in0.0 mm
12:45 AM 51.6°F10.9°C 46.0°F7.8°C 81% 11.0 mph WNW17.7 kmh WNW 15.0 mph24.1 kmh 29.64 in1003.7 mb 0.00 in0.0 mm 0.00 in0.0 mm 0.00 in0.0 mm
12:50 AM 51.7°F10.9°C 46.1°F7.8°C 81% 7.0 mph SW11.3 kmh SW 14.0 mph22.5 kmh 29.64 in1003.7 mb 0.00 in0.0 mm 0.00 in0.0 mm 0.00 in0.0 mm
12:55 AM 51.7°F10.9°C 46.1°F7.8°C 81% 4.0 mph WSW6.4 kmh WSW 15.0 mph24.1 kmh 29.64 in1003.7 mb 0.00 in0.0 mm 0.00 in0.0 mm 0.00 in0.0 mm
12:59 AM 51.6°F10.9°C 46.0°F7.8°C 81% 16.0 mph SW25.7 kmh SW 20.0 mph32.2 kmh 29.65 in1004.1 mb 0.00 in0.0 mm 0.00 in0.0 mm 0.00 in0.0 mm
01:04 AM 51.6°F10.9°C 46.0°F7.8°C 81% 8.0 mph SW12.9 kmh SW 10.0 mph16.1 kmh 29.65 in1004.1 mb 0.00 in0.0 mm 0.00 in0.0 mm 0.00 in0.0 mm
01:09 AM 51.5°F10.8°C 45.9°F7.7°C 81% 8.0 mph SW12.9 kmh SW 14.0 mph22.5 kmh 29.65 in1004.1 mb 0.00 in0.0 mm 0.00 in0.0 mm 0.00 in0.0 mm
01:15 AM 51.4°F10.8°C 45.8°F7.7°C 81% 5.0 mph SW8.0 kmh SW 9.0 mph14.5 kmh 29.66 in1004.4 mb 0.00 in0.0 mm 0.00 in0.0 mm 0.00 in0.0 mm
01:20 AM 51.3°F10.7°C 45.7°F7.6°C 81% 3.0 mph SW4.8 kmh SW 17.0 mph27.4 kmh 29.66 in1004.4 mb 0.00 in0.0 mm 0.00 in0.0 mm 0.00 in0.0 mm
01:25 AM 51.3°F10.7°C 45.7°F7.6°C 81% 6.0 mph WSW9.7 kmh WSW 12.0 mph19.3 kmh 29.66 in1004.4 mb 0.00 in0.0 mm 0.00 in0.0 mm 0.00 in0.0 mm
01:30 AM 51.1°F10.6°C 45.5°F7.5°C 81% 15.0 mph WSW24.1 kmh WSW 15.0 mph24.1 kmh 29.66 in1004.4 mb 0.00 in0.0 mm 0.00 in0.0 mm 0.00 in0.0 mm
01:35 AM 51.0°F10.6°C 45.4°F7.4°C 81% 14.0 mph SW22.5 kmh SW 14.0 mph22.5 kmh 29.66 in1004.4 mb 0.00 in0.0 mm 0.00 in0.0 mm 0.00 in0.0 mm
01:40 AM 50.7°F10.4°C 45.4°F7.4°C 82% 11.0 mph SW17.7 kmh SW 15.0 mph24.1 kmh 29.66 in1004.4 mb 0.00 in0.0 mm 0.00 in0.0 mm 0.00 in0.0 mm
01:45 AM 50.5°F10.3°C 45.2°F7.3°C 82% 3.0 mph W4.8 kmh W 11.0 mph17.7 kmh 29.66 in1004.4 mb 0.00 in0.0 mm 0.00 in0.0 mm 0.00 in0.0 mm
01:50 AM 50.3°F10.2°C 45.0°F7.2°C 82% 3.0 mph W4.8 kmh W 10.0 mph16.1 kmh 29.67 in1004.7 mb 0.00 in0.0 mm 0.00 in0.0 mm 0.00 in0.0 mm
01:55 AM 50.1°F10.1°C 44.8°F7.1°C 82% 8.0 mph NW12.9 kmh NW 14.0 mph22.5 kmh 29.67 in1004.7 mb 0.00 in0.0 mm 0.00 in0.0 mm 0.00 in0.0 mm
02:00 AM 49.8°F9.9°C 44.5°F6.9°C 82% 9.0 mph W14.5 kmh W 10.0 mph16.1 kmh 29.67 in1004.7 mb 0.00 in0.0 mm 0.00 in0.0 mm 0.00 in0.0 mm
02:04 AM 49.6°F9.8°C 44.0°F6.7°C 81% 6.0 mph W9.7 kmh W 12.0 mph19.3 kmh 29.67 in1004.7 mb 0.00 in0.0 mm 0.00 in0.0 mm 0.00 in0.0 mm
02:10 AM 49.4°F9.7°C 43.8°F6.6°C 81% 7.0 mph NW11.3 kmh NW 10.0 mph16.1 kmh 29.67 in1004.7 mb 0.00 in0.0 mm 0.00 in0.0 mm 0.00 in0.0 mm
02:15 AM 49.1°F9.5°C 43.2°F6.2°C 80% 6.0 mph W9.7 kmh W 8.0 mph12.9 kmh 29.68 in1005.1 mb 0.00 in0.0 mm 0.00 in0.0 mm 0.00 in0.0 mm
02:20 AM 48.8°F9.3°C 42.9°F6.1°C 80% 10.0 mph WSW16.1 kmh WSW 14.0 mph22.5 kmh 29.68 in1005.1 mb 0.00 in0.0 mm 0.00 in0.0 mm 0.00 in0.0 mm
02:25 AM 48.5°F9.2°C 42.6°F5.9°C 80% 5.0 mph WSW8.0 kmh WSW 11.0 mph17.7 kmh 29.68 in1005.1 mb 0.00 in0.0 mm 0.00 in0.0 mm 0.00 in0.0 mm
02:30 AM 48.0°F8.9°C 41.8°F5.4°C 79% 3.0 mph W4.8 kmh W 8.0 mph12.9 kmh 29.68 in1005.1 mb 0.00 in0.0 mm 0.00 in0.0 mm 0.00 in0.0 mm
02:35 AM 47.4°F8.6°C 40.6°F4.8°C 77% 3.0 mph W4.8 kmh W 8.0 mph12.9 kmh 29.69 in1005.4 mb 0.00 in0.0 mm 0.00 in0.0 mm 0.00 in0.0 mm
02:40 AM 46.9°F8.3°C 39.7°F4.3°C 76% 11.0 mph WSW17.7 kmh WSW 11.0 mph17.7 kmh 29.69 in1005.4 mb 0.00 in0.0 mm 0.00 in0.0 mm 0.00 in0.0 mm
02:44 AM 46.4°F8.0°C 39.3°F4.1°C 76% 4.0 mph WNW6.4 kmh WNW 13.0 mph20.9 kmh 29.69 in1005.4 mb 0.00 in0.0 mm 0.00 in0.0 mm 0.00 in0.0 mm
02:49 AM 46.0°F7.8°C 38.9°F3.8°C 76% 1.0 mph W1.6 kmh W 5.0 mph8.0 kmh 29.70 in1005.8 mb 0.00 in0.0 mm 0.00 in0.0 mm 0.00 in0.0 mm
02:54 AM 45.7°F7.6°C 38.6°F3.7°C 76% 3.0 mph WNW4.8 kmh WNW 7.0 mph11.3 kmh 29.70 in1005.8 mb 0.00 in0.0 mm 0.00 in0.0 mm 0.00 in0.0 mm
03:00 AM 45.3°F7.4°C 38.2°F3.4°C 76% 5.0 mph NW8.0 kmh NW 8.0 mph12.9 kmh 29.70 in1005.8 mb 0.00 in0.0 mm 0.00 in0.0 mm 0.00 in0.0 mm
03:05 AM 45.0°F7.2°C 38.2°F3.4°C 77% Calm Calm 5.0 mph8.0 kmh 29.70 in1005.8 mb 0.00 in0.0 mm 0.00 in0.0 mm 0.00 in0.0 mm
03:10 AM 44.7°F7.1°C 37.9°F3.3°C 77% 2.0 mph SW3.2 kmh SW 6.0 mph9.7 kmh 29.70 in1005.8 mb 0.00 in0.0 mm 0.00 in0.0 mm 0.00 in0.0 mm
03:15 AM 44.4°F6.9°C 37.7°F3.2°C 77% 9.0 mph NW14.5 kmh NW 9.0 mph14.5 kmh 29.71 in1006.1 mb 0.00 in0.0 mm 0.00 in0.0 mm 0.00 in0.0 mm
03:20 AM 44.2°F6.8°C 37.5°F3.1°C 77% 4.0 mph W6.4 kmh W 8.0 mph12.9 kmh 29.71 in1006.1 mb 0.00 in0.0 mm 0.00 in0.0 mm 0.00 in0.0 mm
03:25 AM 44.0°F6.7°C 37.6°F3.1°C 78% 4.0 mph WNW6.4 kmh WNW 5.0 mph8.0 kmh 29.71 in1006.1 mb 0.00 in0.0 mm 0.00 in0.0 mm 0.00 in0.0 mm
03:30 AM 43.8°F6.6°C 37.4°F3.0°C 78% 8.0 mph NW12.9 kmh NW 8.0 mph12.9 kmh 29.72 in1006.4 mb 0.00 in0.0 mm 0.00 in0.0 mm 0.00 in0.0 mm
03:35 AM 43.4°F6.3°C 36.7°F2.6°C 77% 4.0 mph WNW6.4 kmh WNW 10.0 mph16.1 kmh 29.72 in1006.4 mb 0.00 in0.0 mm 0.00 in0.0 mm 0.00 in0.0 mm
03:40 AM 42.7°F5.9°C 36.0°F2.2°C 77% 3.0 mph WNW4.8 kmh WNW 12.0 mph19.3 kmh 29.73 in1006.8 mb 0.00 in0.0 mm 0.00 in0.0 mm 0.00 in0.0 mm
03:45 AM 42.1°F5.6°C 35.4°F1.9°C 77% 9.0 mph WSW14.5 kmh WSW 10.0 mph16.1 kmh 29.73 in1006.8 mb 0.00 in0.0 mm 0.00 in0.0 mm 0.00 in0.0 mm
03:50 AM 41.5°F5.3°C 35.2°F1.8°C 78% 4.0 mph NW6.4 kmh NW 9.0 mph14.5 kmh 29.74 in1007.1 mb 0.00 in0.0 mm 0.00 in0.0 mm 0.00 in0.0 mm
03:55 AM 41.0°F5.0°C 35.0°F1.7°C 79% 10.0 mph W16.1 kmh W 14.0 mph22.5 kmh 29.74 in1007.1 mb 0.00 in0.0 mm 0.00 in0.0 mm 0.00 in0.0 mm
04:00 AM 40.3°F4.6°C 34.6°F1.4°C 80% 8.0 mph WNW12.9 kmh WNW 13.0 mph20.9 kmh 29.75 in1007.5 mb 0.00 in0.0 mm 0.00 in0.0 mm 0.00 in0.0 mm
04:05 AM 39.6°F4.2°C 34.0°F1.1°C 80% 5.0 mph NW8.0 kmh NW 11.0 mph17.7 kmh 29.75 in1007.5 mb 0.00 in0.0 mm 0.00 in0.0 mm 0.00 in0.0 mm
04:09 AM 39.1°F3.9°C 33.8°F1.0°C 81% 4.0 mph WNW6.4 kmh WNW 10.0 mph16.1 kmh 29.75 in1007.5 mb 0.00 in0.0 mm 0.00 in0.0 mm 0.00 in0.0 mm
04:14 AM 38.8°F3.8°C 33.5°F0.8°C 81% 7.0 mph WSW11.3 kmh WSW 11.0 mph17.7 kmh 29.75 in1007.5 mb 0.00 in0.0 mm 0.00 in0.0 mm 0.00 in0.0 mm
04:19 AM 38.5°F3.6°C 33.5°F0.8°C 82% 4.0 mph W6.4 kmh W 7.0 mph11.3 kmh 29.75 in1007.5 mb 0.00 in0.0 mm 0.00 in0.0 mm 0.00 in0.0 mm
04:25 AM 38.3°F3.5°C 33.6°F0.9°C 83% 3.0 mph NW4.8 kmh NW 3.0 mph4.8 kmh 29.76 in1007.8 mb 0.00 in0.0 mm 0.00 in0.0 mm 0.00 in0.0 mm
04:30 AM 38.1°F3.4°C 33.4°F0.8°C 83% 3.0 mph WNW4.8 kmh WNW 5.0 mph8.0 kmh 29.76 in1007.8 mb 0.00 in0.0 mm 0.00 in0.0 mm 0.00 in0.0 mm
04:35 AM 37.8°F3.2°C 33.1°F0.6°C 83% 7.0 mph SW11.3 kmh SW 10.0 mph16.1 kmh 29.76 in1007.8 mb 0.00 in0.0 mm 0.00 in0.0 mm 0.00 in0.0 mm
04:40 AM 37.3°F2.9°C 32.6°F0.3°C 83% 7.0 mph W11.3 kmh W 8.0 mph12.9 kmh 29.77 in1008.1 mb 0.00 in0.0 mm 0.00 in0.0 mm 0.00 in0.0 mm
04:45 AM 37.0°F2.8°C 32.6°F0.3°C 84% 9.0 mph W14.5 kmh W 14.0 mph22.5 kmh 29.77 in1008.1 mb 0.00 in0.0 mm 0.00 in0.0 mm 0.00 in0.0 mm
04:50 AM 36.5°F2.5°C 32.1°F0.1°C 84% 7.0 mph W11.3 kmh W 10.0 mph16.1 kmh 29.77 in1008.1 mb 0.00 in0.0 mm 0.00 in0.0 mm 0.00 in0.0 mm
04:55 AM 36.2°F2.3°C 32.1°F0.1°C 85% 4.0 mph W6.4 kmh W 10.0 mph16.1 kmh 29.77 in1008.1 mb 0.00 in0.0 mm 0.00 in0.0 mm 0.00 in0.0 mm
05:00 AM 36.0°F2.2°C 32.2°F0.1°C 86% 4.0 mph NW6.4 kmh NW 10.0 mph16.1 kmh 29.77 in1008.1 mb 0.00 in0.0 mm 0.00 in0.0 mm 0.00 in0.0 mm
05:05 AM 35.8°F2.1°C 32.0°F0.0°C 86% 4.0 mph NW6.4 kmh NW 9.0 mph14.5 kmh 29.78 in1008.5 mb 0.00 in0.0 mm 0.00 in0.0 mm 0.00 in0.0 mm
05:10 AM 35.6°F2.0°C 31.8°F-0.1°C 86% 3.0 mph WSW4.8 kmh WSW 10.0 mph16.1 kmh 29.78 in1008.5 mb 0.00 in0.0 mm 0.00 in0.0 mm 0.00 in0.0 mm
05:15 AM 35.6°F2.0°C 32.1°F0.1°C 87% 3.0 mph NW4.8 kmh NW 8.0 mph12.9 kmh 29.78 in1008.5 mb 0.00 in0.0 mm 0.00 in0.0 mm 0.00 in0.0 mm
05:20 AM 35.5°F1.9°C 32.0°F0.0°C 87% 4.0 mph WNW6.4 kmh WNW 7.0 mph11.3 kmh 29.78 in1008.5 mb 0.00 in0.0 mm 0.00 in0.0 mm 0.00 in0.0 mm
05:25 AM 35.4°F1.9°C 31.9°F-0.1°C 87% 3.0 mph W4.8 kmh W 9.0 mph14.5 kmh 29.78 in1008.5 mb 0.00 in0.0 mm 0.00 in0.0 mm 0.00 in0.0 mm
05:30 AM 35.3°F1.8°C 31.8°F-0.1°C 87% 4.0 mph WSW6.4 kmh WSW 9.0 mph14.5 kmh 29.78 in1008.5 mb 0.00 in0.0 mm 0.00 in0.0 mm 0.00 in0.0 mm
05:35 AM 35.3°F1.8°C 31.8°F-0.1°C 87% 5.0 mph WNW8.0 kmh WNW 8.0 mph12.9 kmh 29.79 in1008.8 mb 0.00 in0.0 mm 0.00 in0.0 mm 0.00 in0.0 mm
05:40 AM 35.1°F1.7°C 31.6°F-0.2°C 87% 3.0 mph WNW4.8 kmh WNW 8.0 mph12.9 kmh 29.78 in1008.5 mb 0.00 in0.0 mm 0.00 in0.0 mm 0.00 in0.0 mm
05:45 AM 35.0°F1.7°C 31.5°F-0.3°C 87% 1.0 mph NW1.6 kmh NW 8.0 mph12.9 kmh 29.79 in1008.8 mb 0.00 in0.0 mm 0.00 in0.0 mm 0.00 in0.0 mm
05:50 AM 34.9°F1.6°C 31.4°F-0.3°C 87% 3.0 mph WNW4.8 kmh WNW 3.0 mph4.8 kmh 29.79 in1008.8 mb 0.00 in0.0 mm 0.00 in0.0 mm 0.00 in0.0 mm
05:55 AM 34.8°F1.6°C 31.3°F-0.4°C 87% 2.0 mph WNW3.2 kmh WNW 9.0 mph14.5 kmh 29.79 in1008.8 mb 0.00 in0.0 mm 0.00 in0.0 mm 0.00 in0.0 mm
06:00 AM 34.6°F1.4°C 31.1°F-0.5°C 87% 4.0 mph NW6.4 kmh NW 7.0 mph11.3 kmh 29.80 in1009.1 mb 0.00 in0.0 mm 0.00 in0.0 mm 0.00 in0.0 mm
06:05 AM 34.5°F1.4°C 31.0°F-0.6°C 87% 5.0 mph NW8.0 kmh NW 9.0 mph14.5 kmh 29.79 in1008.8 mb 0.00 in0.0 mm 0.00 in0.0 mm 0.00 in0.0 mm
06:09 AM 34.3°F1.3°C 30.8°F-0.7°C 87% 3.0 mph NW4.8 kmh NW 10.0 mph16.1 kmh 29.80 in1009.1 mb 0.00 in0.0 mm 0.00 in0.0 mm 0.00 in0.0 mm
06:15 AM 34.2°F1.2°C 30.7°F-0.7°C 87% 4.0 mph W6.4 kmh W 9.0 mph14.5 kmh 29.80 in1009.1 mb 0.00 in0.0 mm 0.00 in0.0 mm 0.00 in0.0 mm
06:20 AM 34.1°F1.2°C 30.4°F-0.9°C 86% 5.0 mph NW8.0 kmh NW 9.0 mph14.5 kmh 29.80 in1009.1 mb 0.00 in0.0 mm 0.00 in0.0 mm 0.00 in0.0 mm
06:25 AM 34.1°F1.2°C 30.4°F-0.9°C 86% 4.0 mph NW6.4 kmh NW 6.0 mph9.7 kmh 29.80 in1009.1 mb 0.00 in0.0 mm 0.00 in0.0 mm 0.00 in0.0 mm
06:29 AM 34.2°F1.2°C 30.5°F-0.8°C 86% 2.0 mph NW3.2 kmh NW 5.0 mph8.0 kmh 29.81 in1009.5 mb 0.00 in0.0 mm 0.00 in0.0 mm 0.00 in0.0 mm
06:35 AM 34.2°F1.2°C 30.5°F-0.8°C 86% 3.0 mph NW4.8 kmh NW 9.0 mph14.5 kmh 29.81 in1009.5 mb 0.00 in0.0 mm 0.00 in0.0 mm 0.00 in0.0 mm
06:40 AM 34.1°F1.2°C 30.4°F-0.9°C 86% 4.0 mph NW6.4 kmh NW 9.0 mph14.5 kmh 29.82 in1009.8 mb 0.00 in0.0 mm 0.00 in0.0 mm 0.00 in0.0 mm
06:45 AM 34.1°F1.2°C 30.4°F-0.9°C 86% 3.0 mph NW4.8 kmh NW 12.0 mph19.3 kmh 29.81 in1009.5 mb 0.00 in0.0 mm 0.00 in0.0 mm 0.00 in0.0 mm
06:50 AM 33.9°F1.1°C 30.2°F-1.0°C 86% 4.0 mph NW6.4 kmh NW 7.0 mph11.3 kmh 29.81 in1009.5 mb 0.00 in0.0 mm 0.00 in0.0 mm 0.00 in0.0 mm
06:55 AM 33.6°F0.9°C 29.6°F-1.3°C 85% 1.0 mph NNW1.6 kmh NNW 5.0 mph8.0 kmh 29.81 in1009.5 mb 0.00 in0.0 mm 0.00 in0.0 mm 0.00 in0.0 mm
07:00 AM 33.2°F0.7°C 28.9°F-1.7°C 84% 6.0 mph NW9.7 kmh NW 8.0 mph12.9 kmh 29.82 in1009.8 mb 0.00 in0.0 mm 0.00 in0.0 mm 0.00 in0.0 mm
07:05 AM 32.9°F0.5°C 28.6°F-1.9°C 84% 3.0 mph NNW4.8 kmh NNW 8.0 mph12.9 kmh 29.82 in1009.8 mb 0.00 in0.0 mm 0.00 in0.0 mm 0.00 in0.0 mm
07:10 AM 32.8°F0.4°C 28.5°F-1.9°C 84% 4.0 mph WNW6.4 kmh WNW 8.0 mph12.9 kmh 29.82 in1009.8 mb 0.00 in0.0 mm 0.00 in0.0 mm 0.00 in0.0 mm
07:15 AM 32.6°F0.3°C 28.0°F-2.2°C 83% 3.0 mph NW4.8 kmh NW 8.0 mph12.9 kmh 29.82 in1009.8 mb 0.00 in0.0 mm 0.00 in0.0 mm 0.00 in0.0 mm
07:19 AM 32.4°F0.2°C 27.5°F-2.5°C 82% 4.0 mph WNW6.4 kmh WNW 7.0 mph11.3 kmh 29.82 in1009.8 mb 0.00 in0.0 mm 0.00 in0.0 mm 0.00 in0.0 mm
07:24 AM 32.3°F0.2°C 27.4°F-2.6°C 82% 8.0 mph W12.9 kmh W 9.0 mph14.5 kmh 29.82 in1009.8 mb 0.00 in0.0 mm 0.00 in0.0 mm 0.00 in0.0 mm
07:30 AM 32.0°F0.0°C 27.1°F-2.7°C 82% 4.0 mph NW6.4 kmh NW 11.0 mph17.7 kmh 29.82 in1009.8 mb 0.00 in0.0 mm 0.00 in0.0 mm 0.00 in0.0 mm
07:34 AM 31.8°F-0.1°C 26.7°F-2.9°C 81% 5.0 mph NNW8.0 kmh NNW 10.0 mph16.1 kmh 29.83 in1010.2 mb 0.00 in0.0 mm 0.00 in0.0 mm 0.00 in0.0 mm
07:39 AM 31.4°F-0.3°C 26.0°F-3.3°C 80% 3.0 mph NW4.8 kmh NW 9.0 mph14.5 kmh 29.83 in1010.2 mb 0.00 in0.0 mm 0.00 in0.0 mm 0.00 in0.0 mm
07:44 AM 30.8°F-0.7°C 25.7°F-3.5°C 81% 7.0 mph NW11.3 kmh NW 10.0 mph16.1 kmh 29.84 in1010.5 mb 0.00 in0.0 mm 0.00 in0.0 mm 0.00 in0.0 mm
07:50 AM 30.5°F-0.8°C 25.4°F-3.7°C 81% 4.0 mph WNW6.4 kmh WNW 9.0 mph14.5 kmh 29.84 in1010.5 mb 0.00 in0.0 mm 0.00 in0.0 mm 0.00 in0.0 mm
07:55 AM 30.2°F-1.0°C 25.1°F-3.8°C 81% 7.0 mph NW11.3 kmh NW 10.0 mph16.1 kmh 29.85 in1010.8 mb 0.00 in0.0 mm 0.00 in0.0 mm 0.00 in0.0 mm
08:00 AM 30.1°F-1.1°C 25.3°F-3.7°C 82% 2.0 mph NNW3.2 kmh NNW 7.0 mph11.3 kmh 29.85 in1010.8 mb 0.00 in0.0 mm 0.00 in0.0 mm 0.00 in0.0 mm
08:05 AM 30.0°F-1.1°C 25.2°F-3.8°C 82% 4.0 mph NW6.4 kmh NW 8.0 mph12.9 kmh 29.85 in1010.8 mb 0.00 in0.0 mm 0.00 in0.0 mm 0.00 in0.0 mm
08:10 AM 29.9°F-1.2°C 25.1°F-3.8°C 82% 4.0 mph NW6.4 kmh NW 4.0 mph6.4 kmh 29.84 in1010.5 mb 0.00 in0.0 mm 0.00 in0.0 mm 0.00 in0.0 mm
08:15 AM 29.9°F-1.2°C 25.1°F-3.8°C 82% 2.0 mph NW3.2 kmh NW 3.0 mph4.8 kmh 29.84 in1010.5 mb 0.00 in0.0 mm 0.00 in0.0 mm 0.00 in0.0 mm
08:19 AM 29.8°F-1.2°C 25.3°F-3.7°C 83% 1.0 mph WNW1.6 kmh WNW 3.0 mph4.8 kmh 29.85 in1010.8 mb 0.00 in0.0 mm 0.00 in0.0 mm 0.00 in0.0 mm
08:25 AM 29.7°F-1.3°C 25.2°F-3.8°C 83% 4.0 mph NW6.4 kmh NW 7.0 mph11.3 kmh 29.85 in1010.8 mb 0.00 in0.0 mm 0.00 in0.0 mm 0.00 in0.0 mm
08:30 AM 29.6°F-1.3°C 25.1°F-3.8°C 83% 2.0 mph NW3.2 kmh NW 7.0 mph11.3 kmh 29.85 in1010.8 mb 0.00 in0.0 mm 0.00 in0.0 mm 0.00 in0.0 mm
08:35 AM 29.4°F-1.4°C 24.6°F-4.1°C 82% 4.0 mph NW6.4 kmh NW 5.0 mph8.0 kmh 29.84 in1010.5 mb 0.00 in0.0 mm 0.00 in0.0 mm 0.00 in0.0 mm
08:40 AM 29.2°F-1.6°C 24.7°F-4.1°C 83% 3.0 mph NW4.8 kmh NW 4.0 mph6.4 kmh 29.84 in1010.5 mb 0.00 in0.0 mm 0.00 in0.0 mm 0.00 in0.0 mm
08:45 AM 29.0°F-1.7°C 24.5°F-4.2°C 83% 3.0 mph NW4.8 kmh NW 3.0 mph4.8 kmh 29.85 in1010.8 mb 0.00 in0.0 mm 0.00 in0.0 mm 0.00 in0.0 mm
08:49 AM 29.0°F-1.7°C 24.5°F-4.2°C 83% 1.0 mph NW1.6 kmh NW 3.0 mph4.8 kmh 29.85 in1010.8 mb 0.00 in0.0 mm 0.00 in0.0 mm 0.00 in0.0 mm
08:55 AM 28.9°F-1.7°C 24.7°F-4.1°C 84% Calm Calm 4.0 mph6.4 kmh 29.85 in1010.8 mb 0.00 in0.0 mm 0.00 in0.0 mm 0.00 in0.0 mm
09:00 AM 28.8°F-1.8°C 24.6°F-4.1°C 84% 2.0 mph NNW3.2 kmh NNW 3.0 mph4.8 kmh 29.86 in1011.2 mb 0.00 in0.0 mm 0.00 in0.0 mm 0.00 in0.0 mm
09:04 AM 28.7°F-1.8°C 24.2°F-4.3°C 83% 2.0 mph NNW3.2 kmh NNW 7.0 mph11.3 kmh 29.86 in1011.2 mb 0.00 in0.0 mm 0.00 in0.0 mm 0.00 in0.0 mm
09:09 AM 28.6°F-1.9°C 24.1°F-4.4°C 83% 3.0 mph NNW4.8 kmh NNW 8.0 mph12.9 kmh 29.86 in1011.2 mb 0.00 in0.0 mm 0.00 in0.0 mm 0.00 in0.0 mm
09:15 AM 28.5°F-1.9°C 24.0°F-4.4°C 83% 1.0 mph WNW1.6 kmh WNW 5.0 mph8.0 kmh 29.87 in1011.5 mb 0.00 in0.0 mm 0.00 in0.0 mm 0.00 in0.0 mm
09:20 AM 28.4°F-2.0°C 23.9°F-4.5°C 83% 4.0 mph NW6.4 kmh NW 6.0 mph9.7 kmh 29.87 in1011.5 mb 0.00 in0.0 mm 0.00 in0.0 mm 0.00 in0.0 mm
09:25 AM 28.3°F-2.1°C 23.8°F-4.6°C 83% 3.0 mph NNW4.8 kmh NNW 6.0 mph9.7 kmh 29.87 in1011.5 mb 0.00 in0.0 mm 0.00 in0.0 mm 0.00 in0.0 mm
09:30 AM 28.1°F-2.2°C 23.6°F-4.7°C 83% 5.0 mph NW8.0 kmh NW 5.0 mph8.0 kmh 29.88 in1011.9 mb 0.00 in0.0 mm 0.00 in0.0 mm 0.00 in0.0 mm
09:35 AM 28.0°F-2.2°C 23.5°F-4.7°C 83% 2.0 mph NW3.2 kmh NW 4.0 mph6.4 kmh 29.88 in1011.9 mb 0.00 in0.0 mm 0.00 in0.0 mm 0.00 in0.0 mm
09:40 AM 28.0°F-2.2°C 23.5°F-4.7°C 83% 2.0 mph NW3.2 kmh NW 10.0 mph16.1 kmh 29.88 in1011.9 mb 0.00 in0.0 mm 0.00 in0.0 mm 0.00 in0.0 mm
09:45 AM 28.0°F-2.2°C 23.5°F-4.7°C 83% 8.0 mph NW12.9 kmh NW 9.0 mph14.5 kmh 29.89 in1012.2 mb 0.00 in0.0 mm 0.00 in0.0 mm 0.00 in0.0 mm
09:50 AM 28.1°F-2.2°C 23.3°F-4.8°C 82% 4.0 mph NNW6.4 kmh NNW 8.0 mph12.9 kmh 29.89 in1012.2 mb 0.00 in0.0 mm 0.00 in0.0 mm 0.00 in0.0 mm
09:55 AM 28.2°F-2.1°C 23.4°F-4.8°C 82% 3.0 mph NW4.8 kmh NW 7.0 mph11.3 kmh 29.90 in1012.5 mb 0.00 in0.0 mm 0.00 in0.0 mm 0.00 in0.0 mm
10:00 AM 28.4°F-2.0°C 23.6°F-4.7°C 82% 3.0 mph NW4.8 kmh NW 5.0 mph8.0 kmh 29.90 in1012.5 mb 0.00 in0.0 mm 0.00 in0.0 mm 0.00 in0.0 mm
10:05 AM 28.4°F-2.0°C 23.3°F-4.8°C 81% 5.0 mph NW8.0 kmh NW 5.0 mph8.0 kmh 29.90 in1012.5 mb 0.00 in0.0 mm 0.00 in0.0 mm 0.00 in0.0 mm
10:10 AM 28.5°F-1.9°C 23.7°F-4.6°C 82% 6.0 mph NW9.7 kmh NW 6.0 mph9.7 kmh 29.91 in1012.9 mb 0.00 in0.0 mm 0.00 in0.0 mm 0.00 in0.0 mm
10:15 AM 28.2°F-2.1°C 22.5°F-5.3°C 79% 8.0 mph NW12.9 kmh NW 8.0 mph12.9 kmh 29.91 in1012.9 mb 0.00 in0.0 mm 0.00 in0.0 mm 0.00 in0.0 mm
10:20 AM 28.0°F-2.2°C 22.0°F-5.6°C 78% 3.0 mph NW4.8 kmh NW 10.0 mph16.1 kmh 29.91 in1012.9 mb 0.00 in0.0 mm 0.00 in0.0 mm 0.00 in0.0 mm
10:25 AM 28.0°F-2.2°C 22.0°F-5.6°C 78% 3.0 mph WSW4.8 kmh WSW 7.0 mph11.3 kmh 29.91 in1012.9 mb 0.00 in0.0 mm 0.00 in0.0 mm 0.00 in0.0 mm
10:30 AM 28.2°F-2.1°C 22.2°F-5.4°C 78% 2.0 mph WNW3.2 kmh WNW 5.0 mph8.0 kmh 29.92 in1013.2 mb 0.00 in0.0 mm 0.00 in0.0 mm 0.00 in0.0 mm
10:35 AM 28.4°F-2.0°C 21.8°F-5.7°C 76% 4.0 mph NW6.4 kmh NW 9.0 mph14.5 kmh 29.92 in1013.2 mb 0.00 in0.0 mm 0.00 in0.0 mm 0.00 in0.0 mm
10:40 AM 28.1°F-2.2°C 21.2°F-6.0°C 75% 2.0 mph WNW3.2 kmh WNW 9.0 mph14.5 kmh 29.92 in1013.2 mb 0.00 in0.0 mm 0.00 in0.0 mm 0.00 in0.0 mm
10:44 AM 27.8°F-2.3°C 20.9°F-6.2°C 75% 4.0 mph NW6.4 kmh NW 7.0 mph11.3 kmh 29.92 in1013.2 mb 0.00 in0.0 mm 0.00 in0.0 mm 0.00 in0.0 mm
10:50 AM 27.4°F-2.6°C 20.5°F-6.4°C 75% 5.0 mph NW8.0 kmh NW 7.0 mph11.3 kmh 29.92 in1013.2 mb 0.00 in0.0 mm 0.00 in0.0 mm 0.00 in0.0 mm
10:55 AM 27.2°F-2.7°C 20.3°F-6.5°C 75% 3.0 mph NW4.8 kmh NW 8.0 mph12.9 kmh 29.92 in1013.2 mb 0.00 in0.0 mm 0.00 in0.0 mm 0.00 in0.0 mm
11:00 AM 27.0°F-2.8°C 20.2°F-6.6°C 75% 1.0 mph WNW1.6 kmh WNW 7.0 mph11.3 kmh 29.92 in1013.2 mb 0.00 in0.0 mm 0.00 in0.0 mm 0.00 in0.0 mm
11:05 AM 27.0°F-2.8°C 20.2°F-6.6°C 75% 9.0 mph NW14.5 kmh NW 9.0 mph14.5 kmh 29.93 in1013.5 mb 0.00 in0.0 mm 0.00 in0.0 mm 0.00 in0.0 mm
11:10 AM 26.9°F-2.8°C 19.7°F-6.8°C 74% 4.0 mph WNW6.4 kmh WNW 9.0 mph14.5 kmh 29.93 in1013.5 mb 0.00 in0.0 mm 0.00 in0.0 mm 0.00 in0.0 mm
11:15 AM 26.7°F-2.9°C 19.2°F-7.1°C 73% 4.0 mph NW6.4 kmh NW 6.0 mph9.7 kmh 29.93 in1013.5 mb 0.00 in0.0 mm 0.00 in0.0 mm 0.00 in0.0 mm
11:20 AM 26.6°F-3.0°C 19.1°F-7.2°C 73% 8.0 mph NW12.9 kmh NW 8.0 mph12.9 kmh 29.93 in1013.5 mb 0.00 in0.0 mm 0.00 in0.0 mm 0.00 in0.0 mm
11:25 AM 26.6°F-3.0°C 18.8°F-7.3°C 72% 4.0 mph NNW6.4 kmh NNW 6.0 mph9.7 kmh 29.93 in1013.5 mb 0.00 in0.0 mm 0.00 in0.0 mm 0.00 in0.0 mm
11:30 AM 26.6°F-3.0°C 18.8°F-7.3°C 72% 2.0 mph NW3.2 kmh NW 5.0 mph8.0 kmh 29.93 in1013.5 mb 0.00 in0.0 mm 0.00 in0.0 mm 0.00 in0.0 mm
11:35 AM 26.8°F-2.9°C 19.3°F-7.1°C 73% Calm Calm 4.0 mph6.4 kmh 29.92 in1013.2 mb 0.00 in0.0 mm 0.00 in0.0 mm 0.00 in0.0 mm
11:39 AM 27.0°F-2.8°C 19.5°F-6.9°C 73% 2.0 mph NW3.2 kmh NW 5.0 mph8.0 kmh 29.93 in1013.5 mb 0.00 in0.0 mm 0.00 in0.0 mm 0.00 in0.0 mm
11:45 AM 27.4°F-2.6°C 20.2°F-6.6°C 74% Calm Calm 3.0 mph4.8 kmh 29.93 in1013.5 mb 0.00 in0.0 mm 0.00 in0.0 mm 0.00 in0.0 mm
11:50 AM 27.8°F-2.3°C 20.3°F-6.5°C 73% 1.0 mph WNW1.6 kmh WNW 5.0 mph8.0 kmh 29.93 in1013.5 mb 0.00 in0.0 mm 0.00 in0.0 mm 0.00 in0.0 mm
11:55 AM 28.2°F-2.1°C 20.7°F-6.3°C 73% 2.0 mph W3.2 kmh W 7.0 mph11.3 kmh 29.93 in1013.5 mb 0.00 in0.0 mm 0.00 in0.0 mm 0.00 in0.0 mm
12:00 PM 28.4°F-2.0°C 21.2°F-6.0°C 74% 3.0 mph NW4.8 kmh NW 8.0 mph12.9 kmh 29.94 in1013.9 mb 0.00 in0.0 mm 0.00 in0.0 mm 0.00 in0.0 mm
12:05 PM 28.7°F-1.8°C 21.8°F-5.7°C 75% 5.0 mph NW8.0 kmh NW 8.0 mph12.9 kmh 29.94 in1013.9 mb 0.00 in0.0 mm 0.00 in0.0 mm 0.00 in0.0 mm
12:10 PM 28.7°F-1.8°C 21.2°F-6.0°C 73% 6.0 mph NW9.7 kmh NW 12.0 mph19.3 kmh 29.94 in1013.9 mb 0.00 in0.0 mm 0.00 in0.0 mm 0.00 in0.0 mm
12:15 PM 28.5°F-1.9°C 20.0°F-6.7°C 70% 1.0 mph NW1.6 kmh NW 9.0 mph14.5 kmh 29.95 in1014.2 mb 0.00 in0.0 mm 0.00 in0.0 mm 0.00 in0.0 mm
12:20 PM 28.4°F-2.0°C 19.2°F-7.1°C 68% 11.0 mph NW17.7 kmh NW 11.0 mph17.7 kmh 29.95 in1014.2 mb 0.00 in0.0 mm 0.00 in0.0 mm 0.00 in0.0 mm
12:24 PM 28.3°F-2.1°C 19.5°F-6.9°C 69% 6.0 mph NW9.7 kmh NW 8.0 mph12.9 kmh 29.95 in1014.2 mb 0.00 in0.0 mm 0.00 in0.0 mm 0.00 in0.0 mm
12:30 PM 28.3°F-2.1°C 19.1°F-7.2°C 68% 9.0 mph NW14.5 kmh NW 9.0 mph14.5 kmh 29.95 in1014.2 mb 0.00 in0.0 mm 0.00 in0.0 mm 0.00 in0.0 mm
12:35 PM 28.4°F-2.0°C 19.2°F-7.1°C 68% 6.0 mph SW9.7 kmh SW 6.0 mph9.7 kmh 29.95 in1014.2 mb 0.00 in0.0 mm 0.00 in0.0 mm 0.00 in0.0 mm
12:40 PM 28.7°F-1.8°C 19.1°F-7.2°C 67% 3.0 mph NW4.8 kmh NW 8.0 mph12.9 kmh 29.95 in1014.2 mb 0.00 in0.0 mm 0.00 in0.0 mm 0.00 in0.0 mm
12:45 PM 28.9°F-1.7°C 19.0°F-7.2°C 66% 2.0 mph W3.2 kmh W 9.0 mph14.5 kmh 29.95 in1014.2 mb 0.00 in0.0 mm 0.00 in0.0 mm 0.00 in0.0 mm
12:49 PM 29.1°F-1.6°C 19.2°F-7.1°C 66% 3.0 mph NW4.8 kmh NW 9.0 mph14.5 kmh 29.96 in1014.6 mb 0.00 in0.0 mm 0.00 in0.0 mm 0.00 in0.0 mm
12:55 PM 29.2°F-1.6°C 18.9°F-7.3°C 65% 3.0 mph NW4.8 kmh NW 7.0 mph11.3 kmh 29.96 in1014.6 mb 0.00 in0.0 mm 0.00 in0.0 mm 0.00 in0.0 mm
01:00 PM 29.3°F-1.5°C 19.0°F-7.2°C 65% 3.0 mph WNW4.8 kmh WNW 8.0 mph12.9 kmh 29.96 in1014.6 mb 0.00 in0.0 mm 0.00 in0.0 mm 0.00 in0.0 mm
01:05 PM 29.3°F-1.5°C 19.4°F-7.0°C 66% 1.0 mph NW1.6 kmh NW 8.0 mph12.9 kmh 29.96 in1014.6 mb 0.00 in0.0 mm 0.00 in0.0 mm 0.00 in0.0 mm
01:10 PM 29.6°F-1.3°C 20.0°F-6.7°C 67% 3.0 mph WNW4.8 kmh WNW 8.0 mph12.9 kmh 29.97 in1014.9 mb 0.00 in0.0 mm 0.00 in0.0 mm 0.00 in0.0 mm
01:15 PM 29.8°F-1.2°C 20.2°F-6.6°C 67% 9.0 mph SW14.5 kmh SW 10.0 mph16.1 kmh 29.97 in1014.9 mb 0.00 in0.0 mm 0.00 in0.0 mm 0.00 in0.0 mm
01:20 PM 30.3°F-0.9°C 21.0°F-6.1°C 68% 3.0 mph W4.8 kmh W 7.0 mph11.3 kmh 29.97 in1014.9 mb 0.00 in0.0 mm 0.00 in0.0 mm 0.00 in0.0 mm
01:25 PM 30.7°F-0.7°C 21.8°F-5.7°C 69% 4.0 mph W6.4 kmh W 6.0 mph9.7 kmh 29.97 in1014.9 mb 0.00 in0.0 mm 0.00 in0.0 mm 0.00 in0.0 mm
01:29 PM 30.4°F-0.9°C 20.8°F-6.2°C 67% 5.0 mph WNW8.0 kmh WNW 11.0 mph17.7 kmh 29.97 in1014.9 mb 0.00 in0.0 mm 0.00 in0.0 mm 0.00 in0.0 mm
01:35 PM 30.1°F-1.1°C 21.2°F-6.0°C 69% 6.0 mph SW9.7 kmh SW 8.0 mph12.9 kmh 29.97 in1014.9 mb 0.00 in0.0 mm 0.00 in0.0 mm 0.00 in0.0 mm
01:40 PM 30.2°F-1.0°C 21.6°F-5.8°C 70% 3.0 mph WSW4.8 kmh WSW 9.0 mph14.5 kmh 29.97 in1014.9 mb 0.00 in0.0 mm 0.00 in0.0 mm 0.00 in0.0 mm
01:44 PM 30.3°F-0.9°C 20.3°F-6.5°C 66% 1.0 mph WNW1.6 kmh WNW 8.0 mph12.9 kmh 29.97 in1014.9 mb 0.00 in0.0 mm 0.00 in0.0 mm 0.00 in0.0 mm
01:50 PM 30.6°F-0.8°C 20.6°F-6.3°C 66% 4.0 mph WSW6.4 kmh WSW 5.0 mph8.0 kmh 29.98 in1015.2 mb 0.00 in0.0 mm 0.00 in0.0 mm 0.00 in0.0 mm
01:55 PM 30.4°F-0.9°C 19.3°F-7.1°C 63% 9.0 mph WNW14.5 kmh WNW 9.0 mph14.5 kmh 29.98 in1015.2 mb 0.00 in0.0 mm 0.00 in0.0 mm 0.00 in0.0 mm
02:00 PM 30.0°F-1.1°C 19.0°F-7.2°C 63% 3.0 mph WNW4.8 kmh WNW 7.0 mph11.3 kmh 29.97 in1014.9 mb 0.00 in0.0 mm 0.00 in0.0 mm 0.00 in0.0 mm
02:05 PM 30.1°F-1.1°C 19.4°F-7.0°C 64% 2.0 mph NNW3.2 kmh NNW 8.0 mph12.9 kmh 29.97 in1014.9 mb 0.00 in0.0 mm 0.00 in0.0 mm 0.00 in0.0 mm
02:10 PM 30.3°F-0.9°C 19.6°F-6.9°C 64% 5.0 mph WNW8.0 kmh WNW 9.0 mph14.5 kmh 29.97 in1014.9 mb 0.00 in0.0 mm 0.00 in0.0 mm 0.00 in0.0 mm
02:15 PM 29.9°F-1.2°C 18.5°F-7.5°C 62% 1.0 mph NW1.6 kmh NW 9.0 mph14.5 kmh 29.97 in1014.9 mb 0.00 in0.0 mm 0.00 in0.0 mm 0.00 in0.0 mm
02:20 PM 29.8°F-1.2°C 18.8°F-7.3°C 63% 2.0 mph NW3.2 kmh NW 7.0 mph11.3 kmh 29.97 in1014.9 mb 0.00 in0.0 mm 0.00 in0.0 mm 0.00 in0.0 mm
02:25 PM 29.9°F-1.2°C 19.6°F-6.9°C 65% 3.0 mph NW4.8 kmh NW 7.0 mph11.3 kmh 29.98 in1015.2 mb 0.00 in0.0 mm 0.00 in0.0 mm 0.00 in0.0 mm
02:30 PM 29.7°F-1.3°C 19.8°F-6.8°C 66% 5.0 mph NW8.0 kmh NW 7.0 mph11.3 kmh 29.98 in1015.2 mb 0.00 in0.0 mm 0.00 in0.0 mm 0.00 in0.0 mm
02:35 PM 29.5°F-1.4°C 19.9°F-6.7°C 67% Calm Calm 7.0 mph11.3 kmh 29.98 in1015.2 mb 0.00 in0.0 mm 0.00 in0.0 mm 0.00 in0.0 mm
02:39 PM 29.5°F-1.4°C 19.9°F-6.7°C 67% 8.0 mph WNW12.9 kmh WNW 10.0 mph16.1 kmh 29.98 in1015.2 mb 0.00 in0.0 mm 0.00 in0.0 mm 0.00 in0.0 mm
02:44 PM 29.4°F-1.4°C 19.5°F-6.9°C 66% 3.0 mph NW4.8 kmh NW 5.0 mph8.0 kmh 29.98 in1015.2 mb 0.00 in0.0 mm 0.00 in0.0 mm 0.00 in0.0 mm
02:50 PM 29.5°F-1.4°C 18.8°F-7.3°C 64% 3.0 mph NW4.8 kmh NW 8.0 mph12.9 kmh 29.98 in1015.2 mb 0.00 in0.0 mm 0.00 in0.0 mm 0.00 in0.0 mm
02:55 PM 29.4°F-1.4°C 18.4°F-7.6°C 63% 6.0 mph NNW9.7 kmh NNW 9.0 mph14.5 kmh 29.97 in1014.9 mb 0.00 in0.0 mm 0.00 in0.0 mm 0.00 in0.0 mm
03:00 PM 29.4°F-1.4°C 18.0°F-7.8°C 62% 8.0 mph NW12.9 kmh NW 8.0 mph12.9 kmh 29.97 in1014.9 mb 0.00 in0.0 mm 0.00 in0.0 mm 0.00 in0.0 mm
03:05 PM 29.4°F-1.4°C 18.4°F-7.6°C 63% 1.0 mph NW1.6 kmh NW 8.0 mph12.9 kmh 29.97 in1014.9 mb 0.00 in0.0 mm 0.00 in0.0 mm 0.00 in0.0 mm
03:10 PM 29.4°F-1.4°C 18.7°F-7.4°C 64% 2.0 mph NW3.2 kmh NW 9.0 mph14.5 kmh 29.98 in1015.2 mb 0.00 in0.0 mm 0.00 in0.0 mm 0.00 in0.0 mm
03:15 PM 29.2°F-1.6°C 18.9°F-7.3°C 65% 3.0 mph W4.8 kmh W 5.0 mph8.0 kmh 29.97 in1014.9 mb 0.00 in0.0 mm 0.00 in0.0 mm 0.00 in0.0 mm
03:20 PM 29.2°F-1.6°C 19.3°F-7.1°C 66% 6.0 mph WNW9.7 kmh WNW 8.0 mph12.9 kmh 29.97 in1014.9 mb 0.00 in0.0 mm 0.00 in0.0 mm 0.00 in0.0 mm
03:25 PM 28.9°F-1.7°C 18.6°F-7.4°C 65% 1.0 mph NW1.6 kmh NW 7.0 mph11.3 kmh 29.97 in1014.9 mb 0.00 in0.0 mm 0.00 in0.0 mm 0.00 in0.0 mm
03:30 PM 28.7°F-1.8°C 18.1°F-7.7°C 64% 3.0 mph NW4.8 kmh NW 8.0 mph12.9 kmh 29.97 in1014.9 mb 0.00 in0.0 mm 0.00 in0.0 mm 0.00 in0.0 mm
03:35 PM 28.8°F-1.8°C 18.5°F-7.5°C 65% 1.0 mph WNW1.6 kmh WNW 6.0 mph9.7 kmh 29.97 in1014.9 mb 0.00 in0.0 mm 0.00 in0.0 mm 0.00 in0.0 mm
03:40 PM 29.0°F-1.7°C 19.1°F-7.2°C 66% 2.0 mph NW3.2 kmh NW 3.0 mph4.8 kmh 29.97 in1014.9 mb 0.00 in0.0 mm 0.00 in0.0 mm 0.00 in0.0 mm
03:45 PM 29.1°F-1.6°C 18.8°F-7.3°C 65% 2.0 mph NW3.2 kmh NW 9.0 mph14.5 kmh 29.97 in1014.9 mb 0.00 in0.0 mm 0.00 in0.0 mm 0.00 in0.0 mm
03:49 PM 29.1°F-1.6°C 18.8°F-7.3°C 65% 4.0 mph WNW6.4 kmh WNW 7.0 mph11.3 kmh 29.98 in1015.2 mb 0.00 in0.0 mm 0.00 in0.0 mm 0.00 in0.0 mm
03:54 PM 28.9°F-1.7°C 17.5°F-8.1°C 62% 2.0 mph WNW3.2 kmh WNW 6.0 mph9.7 kmh 29.97 in1014.9 mb 0.00 in0.0 mm 0.00 in0.0 mm 0.00 in0.0 mm
04:00 PM 28.9°F-1.7°C 17.5°F-8.1°C 62% 4.0 mph WNW6.4 kmh WNW 7.0 mph11.3 kmh 29.97 in1014.9 mb 0.00 in0.0 mm 0.00 in0.0 mm 0.00 in0.0 mm
04:05 PM 28.9°F-1.7°C 17.9°F-7.8°C 63% Calm Calm 4.0 mph6.4 kmh 29.97 in1014.9 mb 0.00 in0.0 mm 0.00 in0.0 mm 0.00 in0.0 mm
04:10 PM 29.0°F-1.7°C 18.4°F-7.6°C 64% 2.0 mph W3.2 kmh W 6.0 mph9.7 kmh 29.98 in1015.2 mb 0.00 in0.0 mm 0.00 in0.0 mm 0.00 in0.0 mm
04:15 PM 29.0°F-1.7°C 18.0°F-7.8°C 63% 3.0 mph NW4.8 kmh NW 4.0 mph6.4 kmh 29.98 in1015.2 mb 0.00 in0.0 mm 0.00 in0.0 mm 0.00 in0.0 mm
04:20 PM 29.1°F-1.6°C 17.7°F-7.9°C 62% Calm Calm 5.0 mph8.0 kmh 29.98 in1015.2 mb 0.00 in0.0 mm 0.00 in0.0 mm 0.00 in0.0 mm
04:25 PM 29.2°F-1.6°C 17.1°F-8.3°C 60% 5.0 mph NNW8.0 kmh NNW 8.0 mph12.9 kmh 29.98 in1015.2 mb 0.00 in0.0 mm 0.00 in0.0 mm 0.00 in0.0 mm
04:30 PM 29.1°F-1.6°C 17.3°F-8.2°C 61% 4.0 mph N6.4 kmh N 6.0 mph9.7 kmh 29.98 in1015.2 mb 0.00 in0.0 mm 0.00 in0.0 mm 0.00 in0.0 mm
04:35 PM 29.1°F-1.6°C 17.7°F-7.9°C 62% 2.0 mph NW3.2 kmh NW 5.0 mph8.0 kmh 29.98 in1015.2 mb 0.00 in0.0 mm 0.00 in0.0 mm 0.00 in0.0 mm
04:39 PM 29.1°F-1.6°C 17.3°F-8.2°C 61% 2.0 mph NNW3.2 kmh NNW 6.0 mph9.7 kmh 29.98 in1015.2 mb 0.00 in0.0 mm 0.00 in0.0 mm 0.00 in0.0 mm
04:45 PM 29.0°F-1.7°C 17.6°F-8.0°C 62% 6.0 mph NNW9.7 kmh NNW 6.0 mph9.7 kmh 29.98 in1015.2 mb 0.00 in0.0 mm 0.00 in0.0 mm 0.00 in0.0 mm
04:50 PM 28.8°F-1.8°C 17.8°F-7.9°C 63% 4.0 mph NW6.4 kmh NW 5.0 mph8.0 kmh 29.98 in1015.2 mb 0.00 in0.0 mm 0.00 in0.0 mm 0.00 in0.0 mm
04:55 PM 28.6°F-1.9°C 18.0°F-7.8°C 64% 4.0 mph N6.4 kmh N 6.0 mph9.7 kmh 29.98 in1015.2 mb 0.00 in0.0 mm 0.00 in0.0 mm 0.00 in0.0 mm
05:00 PM 28.7°F-1.8°C 18.4°F-7.6°C 65% 6.0 mph NNW9.7 kmh NNW 6.0 mph9.7 kmh 29.97 in1014.9 mb 0.00 in0.0 mm 0.00 in0.0 mm 0.00 in0.0 mm
05:05 PM 28.6°F-1.9°C 18.3°F-7.6°C 65% 5.0 mph NNW8.0 kmh NNW 6.0 mph9.7 kmh 29.97 in1014.9 mb 0.00 in0.0 mm 0.00 in0.0 mm 0.00 in0.0 mm
05:10 PM 28.6°F-1.9°C 18.3°F-7.6°C 65% 1.0 mph NW1.6 kmh NW 5.0 mph8.0 kmh 29.97 in1014.9 mb 0.00 in0.0 mm 0.00 in0.0 mm 0.00 in0.0 mm
05:15 PM 28.7°F-1.8°C 17.7°F-7.9°C 63% 8.0 mph NNW12.9 kmh NNW 10.0 mph16.1 kmh 29.97 in1014.9 mb 0.00 in0.0 mm 0.00 in0.0 mm 0.00 in0.0 mm
05:19 PM 28.5°F-1.9°C 17.2°F-8.2°C 62% 3.0 mph NNW4.8 kmh NNW 6.0 mph9.7 kmh 29.97 in1014.9 mb 0.00 in0.0 mm 0.00 in0.0 mm 0.00 in0.0 mm
05:25 PM 28.3°F-2.1°C 17.0°F-8.3°C 62% 5.0 mph NNW8.0 kmh NNW 9.0 mph14.5 kmh 29.97 in1014.9 mb 0.00 in0.0 mm 0.00 in0.0 mm 0.00 in0.0 mm
05:30 PM 28.2°F-2.1°C 16.9°F-8.4°C 62% 4.0 mph N6.4 kmh N 9.0 mph14.5 kmh 29.96 in1014.6 mb 0.00 in0.0 mm 0.00 in0.0 mm 0.00 in0.0 mm
05:35 PM 28.1°F-2.2°C 17.1°F-8.3°C 63% 1.0 mph NW1.6 kmh NW 10.0 mph16.1 kmh 29.96 in1014.6 mb 0.00 in0.0 mm 0.00 in0.0 mm 0.00 in0.0 mm
05:40 PM 28.1°F-2.2°C 17.5°F-8.1°C 64% 8.0 mph N12.9 kmh N 9.0 mph14.5 kmh 29.97 in1014.9 mb 0.00 in0.0 mm 0.00 in0.0 mm 0.00 in0.0 mm
05:45 PM 28.0°F-2.2°C 17.8°F-7.9°C 65% 4.0 mph NNW6.4 kmh NNW 5.0 mph8.0 kmh 29.96 in1014.6 mb 0.00 in0.0 mm 0.00 in0.0 mm 0.00 in0.0 mm
05:49 PM 27.9°F-2.3°C 17.7°F-7.9°C 65% 9.0 mph N14.5 kmh N 9.0 mph14.5 kmh 29.96 in1014.6 mb 0.00 in0.0 mm 0.00 in0.0 mm 0.00 in0.0 mm
05:55 PM 27.8°F-2.3°C 17.6°F-8.0°C 65% 4.0 mph NNW6.4 kmh NNW 8.0 mph12.9 kmh 29.96 in1014.6 mb 0.00 in0.0 mm 0.00 in0.0 mm 0.00 in0.0 mm
06:00 PM 27.9°F-2.3°C 17.7°F-7.9°C 65% 2.0 mph NW3.2 kmh NW 6.0 mph9.7 kmh 29.96 in1014.6 mb 0.00 in0.0 mm 0.00 in0.0 mm 0.00 in0.0 mm
06:05 PM 28.0°F-2.2°C 17.8°F-7.9°C 65% 3.0 mph NW4.8 kmh NW 4.0 mph6.4 kmh 29.96 in1014.6 mb 0.00 in0.0 mm 0.00 in0.0 mm 0.00 in0.0 mm
06:10 PM 28.0°F-2.2°C 17.4°F-8.1°C 64% 3.0 mph N4.8 kmh N 6.0 mph9.7 kmh 29.96 in1014.6 mb 0.00 in0.0 mm 0.00 in0.0 mm 0.00 in0.0 mm
06:14 PM 27.9°F-2.3°C 17.7°F-7.9°C 65% 3.0 mph NNW4.8 kmh NNW 8.0 mph12.9 kmh 29.97 in1014.9 mb 0.00 in0.0 mm 0.00 in0.0 mm 0.00 in0.0 mm
06:20 PM 27.9°F-2.3°C 17.7°F-7.9°C 65% 2.0 mph NNW3.2 kmh NNW 5.0 mph8.0 kmh 29.96 in1014.6 mb 0.00 in0.0 mm 0.00 in0.0 mm 0.00 in0.0 mm
06:25 PM 27.9°F-2.3°C 18.0°F-7.8°C 66% 1.0 mph N1.6 kmh N 4.0 mph6.4 kmh 29.97 in1014.9 mb 0.00 in0.0 mm 0.00 in0.0 mm 0.00 in0.0 mm
06:30 PM 28.0°F-2.2°C 18.1°F-7.7°C 66% 2.0 mph N3.2 kmh N 3.0 mph4.8 kmh 29.97 in1014.9 mb 0.00 in0.0 mm 0.00 in0.0 mm 0.00 in0.0 mm
06:35 PM 28.1°F-2.2°C 18.2°F-7.7°C 66% 1.0 mph N1.6 kmh N 4.0 mph6.4 kmh 29.97 in1014.9 mb 0.00 in0.0 mm 0.00 in0.0 mm 0.00 in0.0 mm
06:40 PM 28.1°F-2.2°C 17.9°F-7.8°C 65% 3.0 mph NNW4.8 kmh NNW 5.0 mph8.0 kmh 29.97 in1014.9 mb 0.00 in0.0 mm 0.00 in0.0 mm 0.00 in0.0 mm
06:44 PM 28.0°F-2.2°C 17.8°F-7.9°C 65% 2.0 mph N3.2 kmh N 6.0 mph9.7 kmh 29.97 in1014.9 mb 0.00 in0.0 mm 0.00 in0.0 mm 0.00 in0.0 mm
06:50 PM 27.9°F-2.3°C 17.7°F-7.9°C 65% 1.0 mph N1.6 kmh N 6.0 mph9.7 kmh 29.98 in1015.2 mb 0.00 in0.0 mm 0.00 in0.0 mm 0.00 in0.0 mm
06:55 PM 27.8°F-2.3°C 17.6°F-8.0°C 65% Calm Calm 2.0 mph3.2 kmh 29.98 in1015.2 mb 0.00 in0.0 mm 0.00 in0.0 mm 0.00 in0.0 mm
07:00 PM 27.8°F-2.3°C 17.6°F-8.0°C 65% 2.0 mph N3.2 kmh N 8.0 mph12.9 kmh 29.98 in1015.2 mb 0.00 in0.0 mm 0.00 in0.0 mm 0.00 in0.0 mm
07:05 PM 27.7°F-2.4°C 17.5°F-8.1°C 65% 3.0 mph N4.8 kmh N 4.0 mph6.4 kmh 29.98 in1015.2 mb 0.00 in0.0 mm 0.00 in0.0 mm 0.00 in0.0 mm
07:10 PM 27.6°F-2.4°C 17.4°F-8.1°C 65% 4.0 mph N6.4 kmh N 5.0 mph8.0 kmh 29.98 in1015.2 mb 0.00 in0.0 mm 0.00 in0.0 mm 0.00 in0.0 mm
07:15 PM 27.6°F-2.4°C 17.7°F-7.9°C 66% Calm Calm 3.0 mph4.8 kmh 29.99 in1015.6 mb 0.00 in0.0 mm 0.00 in0.0 mm 0.00 in0.0 mm
07:20 PM 27.5°F-2.5°C 17.3°F-8.2°C 65% 1.0 mph N1.6 kmh N 5.0 mph8.0 kmh 29.99 in1015.6 mb 0.00 in0.0 mm 0.00 in0.0 mm 0.00 in0.0 mm
07:25 PM 27.5°F-2.5°C 17.7°F-7.9°C 66% 1.0 mph NNW1.6 kmh NNW 3.0 mph4.8 kmh 29.99 in1015.6 mb 0.00 in0.0 mm 0.00 in0.0 mm 0.00 in0.0 mm
07:30 PM 27.4°F-2.6°C 17.6°F-8.0°C 66% 2.0 mph NNW3.2 kmh NNW 4.0 mph6.4 kmh 29.99 in1015.6 mb 0.00 in0.0 mm 0.00 in0.0 mm 0.00 in0.0 mm
07:34 PM 27.2°F-2.7°C 17.0°F-8.3°C 65% Calm Calm 4.0 mph6.4 kmh 29.99 in1015.6 mb 0.00 in0.0 mm 0.00 in0.0 mm 0.00 in0.0 mm
07:40 PM 27.1°F-2.7°C 17.3°F-8.2°C 66% 2.0 mph NNW3.2 kmh NNW 4.0 mph6.4 kmh 30.00 in1015.9 mb 0.00 in0.0 mm 0.00 in0.0 mm 0.00 in0.0 mm
07:45 PM 27.1°F-2.7°C 17.3°F-8.2°C 66% 2.0 mph NNW3.2 kmh NNW 3.0 mph4.8 kmh 30.00 in1015.9 mb 0.00 in0.0 mm 0.00 in0.0 mm 0.00 in0.0 mm
07:50 PM 27.0°F-2.8°C 17.5°F-8.1°C 67% 1.0 mph NNW1.6 kmh NNW 3.0 mph4.8 kmh 30.00 in1015.9 mb 0.00 in0.0 mm 0.00 in0.0 mm 0.00 in0.0 mm
07:55 PM 26.9°F-2.8°C 17.4°F-8.1°C 67% 3.0 mph NNW4.8 kmh NNW 3.0 mph4.8 kmh 30.00 in1015.9 mb 0.00 in0.0 mm 0.00 in0.0 mm 0.00 in0.0 mm
08:00 PM 26.9°F-2.8°C 17.8°F-7.9°C 68% Calm Calm 4.0 mph6.4 kmh 30.01 in1016.3 mb 0.00 in0.0 mm 0.00 in0.0 mm 0.00 in0.0 mm
08:05 PM 26.9°F-2.8°C 17.8°F-7.9°C 68% 1.0 mph NNW1.6 kmh NNW 2.0 mph3.2 kmh 30.01 in1016.3 mb 0.00 in0.0 mm 0.00 in0.0 mm 0.00 in0.0 mm
08:10 PM 26.9°F-2.8°C 17.8°F-7.9°C 68% 1.0 mph NNW1.6 kmh NNW 4.0 mph6.4 kmh 30.02 in1016.6 mb 0.00 in0.0 mm 0.00 in0.0 mm 0.00 in0.0 mm
08:14 PM 26.9°F-2.8°C 18.1°F-7.7°C 69% Calm Calm 2.0 mph3.2 kmh 30.02 in1016.6 mb 0.00 in0.0 mm 0.00 in0.0 mm 0.00 in0.0 mm
08:20 PM 27.0°F-2.8°C 18.5°F-7.5°C 70% 2.0 mph NNW3.2 kmh NNW 2.0 mph3.2 kmh 30.02 in1016.6 mb 0.00 in0.0 mm 0.00 in0.0 mm 0.00 in0.0 mm
08:25 PM 26.9°F-2.8°C 18.1°F-7.7°C 69% Calm Calm 2.0 mph3.2 kmh 30.02 in1016.6 mb 0.00 in0.0 mm 0.00 in0.0 mm 0.00 in0.0 mm
08:30 PM 26.9°F-2.8°C 18.1°F-7.7°C 69% 2.0 mph NNW3.2 kmh NNW 3.0 mph4.8 kmh 30.02 in1016.6 mb 0.00 in0.0 mm 0.00 in0.0 mm 0.00 in0.0 mm
08:34 PM 26.8°F-2.9°C 18.0°F-7.8°C 69% Calm Calm -- 30.02 in1016.6 mb 0.00 in0.0 mm 0.00 in0.0 mm 0.00 in0.0 mm
08:40 PM 26.8°F-2.9°C 18.0°F-7.8°C 69% Calm Calm 1.0 mph1.6 kmh 30.01 in1016.3 mb 0.00 in0.0 mm 0.00 in0.0 mm 0.00 in0.0 mm
08:45 PM 26.7°F-2.9°C 17.9°F-7.8°C 69% Calm Calm -- 30.02 in1016.6 mb 0.00 in0.0 mm 0.00 in0.0 mm 0.00 in0.0 mm
08:50 PM 26.7°F-2.9°C 17.9°F-7.8°C 69% Calm Calm -- 30.01 in1016.3 mb 0.00 in0.0 mm 0.00 in0.0 mm 0.00 in0.0 mm
08:54 PM 26.6°F-3.0°C 17.8°F-7.9°C 69% 1.0 mph NNW1.6 kmh NNW 3.0 mph4.8 kmh 30.01 in1016.3 mb 0.00 in0.0 mm 0.00 in0.0 mm 0.00 in0.0 mm
08:59 PM 26.6°F-3.0°C 18.2°F-7.7°C 70% Calm Calm -- 30.02 in1016.6 mb 0.00 in0.0 mm 0.00 in0.0 mm 0.00 in0.0 mm
09:05 PM 26.6°F-3.0°C 18.2°F-7.7°C 70% 1.0 mph NNW1.6 kmh NNW 1.0 mph1.6 kmh 30.03 in1016.9 mb 0.00 in0.0 mm 0.00 in0.0 mm 0.00 in0.0 mm
09:10 PM 26.7°F-2.9°C 18.3°F-7.6°C 70% Calm Calm 3.0 mph4.8 kmh 30.03 in1016.9 mb 0.00 in0.0 mm 0.00 in0.0 mm 0.00 in0.0 mm
09:15 PM 26.6°F-3.0°C 18.2°F-7.7°C 70% 2.0 mph NNW3.2 kmh NNW 2.0 mph3.2 kmh 30.02 in1016.6 mb 0.00 in0.0 mm 0.00 in0.0 mm 0.00 in0.0 mm
09:19 PM 26.6°F-3.0°C 17.8°F-7.9°C 69% 1.0 mph NNW1.6 kmh NNW 4.0 mph6.4 kmh 30.02 in1016.6 mb 0.00 in0.0 mm 0.00 in0.0 mm 0.00 in0.0 mm
09:25 PM 26.6°F-3.0°C 18.2°F-7.7°C 70% 1.0 mph NNW1.6 kmh NNW 3.0 mph4.8 kmh 30.01 in1016.3 mb 0.00 in0.0 mm 0.00 in0.0 mm 0.00 in0.0 mm
09:30 PM 26.6°F-3.0°C 18.2°F-7.7°C 70% 2.0 mph N3.2 kmh N 2.0 mph3.2 kmh 30.02 in1016.6 mb 0.00 in0.0 mm 0.00 in0.0 mm 0.00 in0.0 mm
09:35 PM 26.5°F-3.1°C 18.1°F-7.7°C 70% 3.0 mph NNW4.8 kmh NNW 5.0 mph8.0 kmh 30.02 in1016.6 mb 0.00 in0.0 mm 0.00 in0.0 mm 0.00 in0.0 mm
09:40 PM 26.5°F-3.1°C 18.1°F-7.7°C 70% 1.0 mph NNW1.6 kmh NNW 3.0 mph4.8 kmh 30.02 in1016.6 mb 0.00 in0.0 mm 0.00 in0.0 mm 0.00 in0.0 mm
09:44 PM 26.5°F-3.1°C 18.1°F-7.7°C 70% 2.0 mph N3.2 kmh N 5.0 mph8.0 kmh 30.02 in1016.6 mb 0.00 in0.0 mm 0.00 in0.0 mm 0.00 in0.0 mm
09:50 PM 26.5°F-3.1°C 18.1°F-7.7°C 70% 1.0 mph N1.6 kmh N 4.0 mph6.4 kmh 30.03 in1016.9 mb 0.00 in0.0 mm 0.00 in0.0 mm 0.00 in0.0 mm
09:55 PM 26.4°F-3.1°C 18.0°F-7.8°C 70% 2.0 mph N3.2 kmh N 3.0 mph4.8 kmh 30.02 in1016.6 mb 0.00 in0.0 mm 0.00 in0.0 mm 0.00 in0.0 mm
10:00 PM 26.4°F-3.1°C 18.3°F-7.6°C 71% Calm Calm 3.0 mph4.8 kmh 30.03 in1016.9 mb 0.00 in0.0 mm 0.00 in0.0 mm 0.00 in0.0 mm
10:05 PM 26.4°F-3.1°C 18.3°F-7.6°C 71% 1.0 mph NNW1.6 kmh NNW 3.0 mph4.8 kmh 30.03 in1016.9 mb 0.00 in0.0 mm 0.00 in0.0 mm 0.00 in0.0 mm
10:09 PM 26.4°F-3.1°C 18.3°F-7.6°C 71% 1.0 mph NNW1.6 kmh NNW 2.0 mph3.2 kmh 30.02 in1016.6 mb 0.00 in0.0 mm 0.00 in0.0 mm 0.00 in0.0 mm
10:15 PM 26.3°F-3.2°C 18.2°F-7.7°C 71% Calm Calm 2.0 mph3.2 kmh 30.02 in1016.6 mb 0.00 in0.0 mm 0.00 in0.0 mm 0.00 in0.0 mm
10:19 PM 26.4°F-3.1°C 18.3°F-7.6°C 71% Calm Calm 4.0 mph6.4 kmh 30.02 in1016.6 mb 0.00 in0.0 mm 0.00 in0.0 mm 0.00 in0.0 mm
10:24 PM 26.3°F-3.2°C 18.2°F-7.7°C 71% Calm Calm 3.0 mph4.8 kmh 30.02 in1016.6 mb 0.00 in0.0 mm 0.00 in0.0 mm 0.00 in0.0 mm
10:30 PM 26.4°F-3.1°C 18.6°F-7.4°C 72% Calm Calm 2.0 mph3.2 kmh 30.03 in1016.9 mb 0.00 in0.0 mm 0.00 in0.0 mm 0.00 in0.0 mm
10:35 PM 26.4°F-3.1°C 18.6°F-7.4°C 72% 1.0 mph N1.6 kmh N 3.0 mph4.8 kmh 30.03 in1016.9 mb 0.00 in0.0 mm 0.00 in0.0 mm 0.00 in0.0 mm
10:40 PM 26.4°F-3.1°C 18.6°F-7.4°C 72% Calm Calm -- 30.04 in1017.3 mb 0.00 in0.0 mm 0.00 in0.0 mm 0.00 in0.0 mm
10:45 PM 26.4°F-3.1°C 18.6°F-7.4°C 72% Calm Calm -- 30.04 in1017.3 mb 0.00 in0.0 mm 0.00 in0.0 mm 0.00 in0.0 mm
10:50 PM 26.4°F-3.1°C 18.6°F-7.4°C 72% Calm Calm -- 30.04 in1017.3 mb 0.00 in0.0 mm 0.00 in0.0 mm 0.00 in0.0 mm
10:54 PM 26.3°F-3.2°C 18.5°F-7.5°C 72% Calm Calm -- 30.04 in1017.3 mb 0.00 in0.0 mm 0.00 in0.0 mm 0.00 in0.0 mm
11:00 PM 26.3°F-3.2°C 18.5°F-7.5°C 72% Calm Calm 2.0 mph3.2 kmh 30.04 in1017.3 mb 0.00 in0.0 mm 0.00 in0.0 mm 0.00 in0.0 mm
11:05 PM 26.2°F-3.2°C 18.4°F-7.6°C 72% 1.0 mph N1.6 kmh N 3.0 mph4.8 kmh 30.05 in1017.6 mb 0.00 in0.0 mm 0.00 in0.0 mm 0.00 in0.0 mm
11:10 PM 26.2°F-3.2°C 18.7°F-7.4°C 73% 2.0 mph N3.2 kmh N 2.0 mph3.2 kmh 30.05 in1017.6 mb 0.00 in0.0 mm 0.00 in0.0 mm 0.00 in0.0 mm
11:15 PM 26.2°F-3.2°C 18.7°F-7.4°C 73% Calm Calm 3.0 mph4.8 kmh 30.04 in1017.3 mb 0.00 in0.0 mm 0.00 in0.0 mm 0.00 in0.0 mm
11:20 PM 26.2°F-3.2°C 18.7°F-7.4°C 73% Calm Calm 3.0 mph4.8 kmh 30.04 in1017.3 mb 0.00 in0.0 mm 0.00 in0.0 mm 0.00 in0.0 mm
11:25 PM 26.2°F-3.2°C 19.1°F-7.2°C 74% 4.0 mph N6.4 kmh N 4.0 mph6.4 kmh 30.04 in1017.3 mb 0.00 in0.0 mm 0.00 in0.0 mm 0.00 in0.0 mm
11:30 PM 26.1°F-3.3°C 19.0°F-7.2°C 74% 2.0 mph N3.2 kmh N 5.0 mph8.0 kmh 30.04 in1017.3 mb 0.00 in0.0 mm 0.00 in0.0 mm 0.00 in0.0 mm
11:35 PM 26.2°F-3.2°C 19.4°F-7.0°C 75% 2.0 mph N3.2 kmh N 4.0 mph6.4 kmh 30.04 in1017.3 mb 0.00 in0.0 mm 0.00 in0.0 mm 0.00 in0.0 mm
11:40 PM 26.2°F-3.2°C 19.4°F-7.0°C 75% 4.0 mph N6.4 kmh N 5.0 mph8.0 kmh 30.04 in1017.3 mb 0.00 in0.0 mm 0.00 in0.0 mm 0.00 in0.0 mm
11:45 PM 26.2°F-3.2°C 19.4°F-7.0°C 75% 2.0 mph N3.2 kmh N 4.0 mph6.4 kmh 30.05 in1017.6 mb 0.00 in0.0 mm 0.00 in0.0 mm 0.00 in0.0 mm
11:50 PM 26.2°F-3.2°C 19.4°F-7.0°C 75% 1.0 mph NNW1.6 kmh NNW 3.0 mph4.8 kmh 30.05 in1017.6 mb 0.00 in0.0 mm 0.00 in0.0 mm 0.00 in0.0 mm
11:55 PM 26.1°F-3.3°C 19.3°F-7.1°C 75% 4.0 mph N6.4 kmh N 5.0 mph8.0 kmh 30.05 in1017.6 mb 0.00 in0.0 mm 0.00 in0.0 mm 0.00 in0.0 mm